Time,TemperatureF,DewpointF,PressureIn,WindDirection,WindDirectionDegrees,WindSpeedMPH,WindSpeedGustMPH,Humidity,HourlyPrecipIn,Conditions,Clouds,dailyrainin,SoftwareType,DateUTC
2013-03-10 00:00:00,43.3,37.9,30.32,SE,125,0.0,0.0,81,0.00,,,-99.99,Weather View 32 v60,2013-03-10 08:00:00,
2013-03-10 00:10:00,43.0,37.5,30.32,SE,125,0.0,0.0,81,0.00,,,-99.99,Weather View 32 v60,2013-03-10 08:10:00,
2013-03-10 00:20:00,42.6,37.2,30.32,SE,125,0.0,0.0,81,0.00,,,-99.99,Weather View 32 v60,2013-03-10 08:20:00,
2013-03-10 00:30:00,42.3,36.8,30.32,SE,125,0.0,0.0,81,0.00,,,-99.99,Weather View 32 v60,2013-03-10 08:30:00,
2013-03-10 00:40:00,42.1,36.7,30.32,SE,125,0.0,0.0,81,0.00,,,-99.99,Weather View 32 v60,2013-03-10 08:40:00,
2013-03-10 00:50:00,41.5,36.4,30.32,South,174,0.0,0.0,82,0.00,,,-99.99,Weather View 32 v60,2013-03-10 08:50:00,
2013-03-10 01:00:00,41.4,36.6,30.32,SSE,165,0.0,0.0,83,0.00,,,-99.99,Weather View 32 v60,2013-03-10 09:00:00,
2013-03-10 01:10:00,41.2,36.4,30.32,SSE,165,0.0,0.0,83,0.00,,,-99.99,Weather View 32 v60,2013-03-10 09:10:00,
2013-03-10 01:20:00,41.2,36.7,30.32,ENE,73,0.0,0.0,84,0.00,,,-99.99,Weather View 32 v60,2013-03-10 09:20:00,
2013-03-10 01:29:00,41.0,36.8,30.32,ENE,73,0.0,0.0,85,0.00,,,-99.99,Weather View 32 v60,2013-03-10 09:29:00,
2013-03-10 01:40:00,40.5,36.0,30.32,ENE,74,0.0,0.0,84,0.00,,,-99.99,Weather View 32 v60,2013-03-10 09:40:00,
2013-03-10 01:50:00,40.3,35.8,30.32,ENE,73,0.0,0.0,84,0.00,,,-99.99,Weather View 32 v60,2013-03-10 09:50:00,
2013-03-10 03:00:00,40.1,35.9,30.32,ENE,74,0.0,0.0,85,0.00,,,-99.99,Weather View 32 v60,2013-03-10 10:00:00,
2013-03-10 03:10:00,39.9,36.1,30.32,ENE,74,0.0,0.0,86,0.00,,,-99.99,Weather View 32 v60,2013-03-10 10:10:00,
2013-03-10 03:20:00,39.7,36.2,30.32,ENE,73,0.0,0.0,87,0.00,,,-99.99,Weather View 32 v60,2013-03-10 10:20:00,
2013-03-10 03:30:00,39.4,35.8,30.32,ENE,73,0.0,0.0,87,0.00,,,-99.99,Weather View 32 v60,2013-03-10 10:30:00,
2013-03-10 03:40:00,39.2,35.7,30.32,ENE,74,0.0,0.0,87,0.00,,,-99.99,Weather View 32 v60,2013-03-10 10:40:00,
2013-03-10 03:50:00,39.0,35.5,30.32,ENE,73,0.0,0.0,87,0.00,,,-99.99,Weather View 32 v60,2013-03-10 10:50:00,
2013-03-10 04:00:00,38.8,35.3,30.32,ENE,73,0.0,0.0,87,0.00,,,-99.99,Weather View 32 v60,2013-03-10 11:00:00,
2013-03-10 04:10:00,38.8,35.6,30.32,ENE,74,0.0,0.0,88,0.00,,,-99.99,Weather View 32 v60,2013-03-10 11:10:00,
2013-03-10 04:20:00,38.7,35.4,30.32,ENE,74,0.0,0.0,88,0.00,,,-99.99,Weather View 32 v60,2013-03-10 11:20:00,
2013-03-10 04:30:00,38.5,35.2,30.32,ENE,73,0.0,0.0,88,0.00,,,-99.99,Weather View 32 v60,2013-03-10 11:30:00,
2013-03-10 04:40:00,38.1,35.2,30.32,ENE,73,0.0,0.0,89,0.00,,,-99.99,Weather View 32 v60,2013-03-10 11:40:00,
2013-03-10 04:50:00,37.9,35.0,30.32,ENE,73,0.0,0.0,89,0.00,,,-99.99,Weather View 32 v60,2013-03-10 11:50:00,
2013-03-10 05:00:00,37.6,34.6,30.32,ENE,73,0.0,0.0,89,0.00,,,-99.99,Weather View 32 v60,2013-03-10 12:00:00,
2013-03-10 05:10:00,37.6,34.9,30.32,ENE,63,0.0,0.0,90,0.00,,,-99.99,Weather View 32 v60,2013-03-10 12:10:00,
2013-03-10 05:20:00,37.4,35.0,30.32,ENE,69,0.0,0.0,91,0.00,,,-99.99,Weather View 32 v60,2013-03-10 12:20:00,
2013-03-10 05:30:00,37.4,35.0,30.32,ENE,69,0.0,0.0,91,0.00,,,-99.99,Weather View 32 v60,2013-03-10 12:30:00,
2013-03-10 05:40:00,37.0,34.7,30.32,ENE,66,0.0,0.0,91,0.00,,,-99.99,Weather View 32 v60,2013-03-10 12:40:00,
2013-03-10 05:50:00,36.9,34.8,30.32,NE,51,0.0,0.0,92,0.00,,,-99.99,Weather View 32 v60,2013-03-10 12:50:00,
2013-03-10 06:00:00,36.9,35.0,30.32,NE,51,0.0,0.0,93,0.00,,,-99.99,Weather View 32 v60,2013-03-10 13:00:00,
2013-03-10 06:10:00,36.7,34.8,30.35,NE,51,0.0,0.0,93,0.00,,,-99.99,Weather View 32 v60,2013-03-10 13:10:00,
2013-03-10 06:20:00,36.5,34.7,30.32,NE,51,0.0,0.0,93,0.00,,,-99.99,Weather View 32 v60,2013-03-10 13:20:00,
2013-03-10 06:30:00,36.5,34.9,30.32,NE,49,0.0,0.0,94,0.00,,,-99.99,Weather View 32 v60,2013-03-10 13:30:00,
2013-03-10 06:40:00,36.3,34.8,30.35,NE,49,0.0,0.0,94,0.00,,,-99.99,Weather View 32 v60,2013-03-10 13:40:00,
2013-03-10 06:50:00,36.1,34.6,30.35,NE,42,0.0,0.0,94,0.00,,,-99.99,Weather View 32 v60,2013-03-10 13:50:00,
2013-03-10 07:00:00,36.1,34.8,30.35,NE,42,0.0,0.0,95,0.00,,,-99.99,Weather View 32 v60,2013-03-10 14:00:00,
2013-03-10 07:10:00,35.6,34.3,30.35,NE,42,0.0,0.0,95,0.00,,,-99.99,Weather View 32 v60,2013-03-10 14:10:00,
2013-03-10 07:20:00,35.4,34.1,30.35,NE,42,0.0,0.0,95,0.00,,,-99.99,Weather View 32 v60,2013-03-10 14:20:00,
2013-03-10 07:30:00,35.4,34.1,30.35,NE,42,0.0,0.0,95,0.00,,,-99.99,Weather View 32 v60,2013-03-10 14:30:00,
2013-03-10 07:40:00,35.6,34.3,30.35,NE,42,0.0,0.0,95,0.00,,,-99.99,Weather View 32 v60,2013-03-10 14:40:00,
2013-03-10 07:50:00,36.0,34.9,30.35,SE,146,0.0,0.0,96,0.00,,,-99.99,Weather View 32 v60,2013-03-10 14:50:00,
2013-03-10 08:00:00,36.3,35.3,30.35,WSW,253,0.0,0.0,96,0.00,,,-99.99,Weather View 32 v60,2013-03-10 15:00:00,
2013-03-10 08:10:00,37.0,36.0,30.35,WSW,253,0.0,0.0,96,0.00,,,-99.99,Weather View 32 v60,2013-03-10 15:10:00,
2013-03-10 08:20:00,37.9,37.2,30.35,NW,313,0.0,0.0,97,0.00,,,-99.99,Weather View 32 v60,2013-03-10 15:20:00,
2013-03-10 15:30:00,74.7,32.0,30.29,NE,47,0.0,11.0,21,0.00,,,-99.99,Weather View 32 v60,2013-03-10 22:30:00,
2013-03-10 15:40:00,73.2,32.0,30.29,East,101,0.0,8.0,22,0.00,,,-99.99,Weather View 32 v60,2013-03-10 22:40:00,
2013-03-10 16:00:00,73.4,32.1,30.29,East,91,0.0,8.0,22,0.00,,,-99.99,Weather View 32 v60,2013-03-10 23:00:00,
2013-03-10 16:10:00,73.9,32.6,30.29,East,94,0.0,8.0,22,0.00,,,-99.99,Weather View 32 v60,2013-03-10 23:10:00,
2013-03-10 16:20:00,75.0,32.3,30.26,SE,131,0.0,8.0,21,0.00,,,-99.99,Weather View 32 v60,2013-03-10 23:20:00,
2013-03-10 16:30:00,73.2,32.0,30.26,ESE,103,4.0,9.0,22,0.00,,,-99.99,Weather View 32 v60,2013-03-10 23:30:00,
2013-03-10 16:40:00,72.7,31.5,30.26,NNE,17,0.0,9.0,22,0.00,,,-99.99,Weather View 32 v60,2013-03-10 23:40:00,
2013-03-10 16:50:00,71.8,30.8,30.26,ENE,57,0.0,9.0,22,0.00,,,-99.99,Weather View 32 v60,2013-03-10 23:50:00,
2013-03-10 17:00:00,72.5,31.4,30.26,NE,40,0.0,9.0,22,0.00,,,-99.99,Weather View 32 v60,2013-03-11 00:00:00,
2013-03-10 17:16:00,72.5,31.4,30.26,NE,40,0.0,9.0,22,0.00,,,-99.99,Weather View 32 v60,2013-03-11 00:16:00,
2013-03-10 17:30:00,70.9,31.1,30.26,ENE,73,0.0,8.0,23,0.00,,,-99.99,Weather View 32 v60,2013-03-11 00:30:00,
2013-03-10 17:40:00,70.3,30.7,30.26,NE,34,0.0,8.0,23,0.00,,,-99.99,Weather View 32 v60,2013-03-11 00:40:00,
2013-03-10 17:50:00,69.6,31.1,30.26,NE,56,0.0,8.0,24,0.00,,,-99.99,Weather View 32 v60,2013-03-11 00:50:00,
2013-03-10 18:00:00,68.9,31.5,30.26,SE,131,0.0,8.0,25,0.00,,,-99.99,Weather View 32 v60,2013-03-11 01:00:00,
2013-03-10 18:10:00,68.0,31.8,30.26,ENE,67,0.0,8.0,26,0.00,,,-99.99,Weather View 32 v60,2013-03-11 01:10:00,
2013-03-10 18:17:00,68.0,31.8,30.26,ENE,67,0.0,8.0,26,0.00,,,-99.99,Weather View 32 v60,2013-03-11 01:17:00,
2013-03-10 18:30:00,67.1,31.9,30.26,North,9,0.0,7.0,27,0.00,,,-99.99,Weather View 32 v60,2013-03-11 01:30:00,
2013-03-10 18:40:00,66.6,32.4,30.26,North,351,0.0,7.0,28,0.00,,,-99.99,Weather View 32 v60,2013-03-11 01:40:00,
2013-03-10 18:50:00,65.7,33.3,30.26,NE,46,0.0,7.0,30,0.00,,,-99.99,Weather View 32 v60,2013-03-11 01:50:00,
2013-03-10 19:00:00,64.8,34.9,30.26,NW,305,0.0,7.0,33,0.00,,,-99.99,Weather View 32 v60,2013-03-11 02:00:00,
2013-03-10 19:17:00,63.5,34.6,30.26,WNW,297,0.0,7.0,34,0.00,,,-99.99,Weather View 32 v60,2013-03-11 02:17:00,
2013-03-10 19:30:00,61.9,33.9,30.26,NNW,334,0.0,0.0,35,0.00,,,-99.99,Weather View 32 v60,2013-03-11 02:30:00,
2013-03-10 19:40:00,61.0,33.8,30.26,NNW,331,0.0,0.0,36,0.00,,,-99.99,Weather View 32 v60,2013-03-11 02:40:00,
2013-03-10 19:50:00,60.1,33.0,30.26,NW,310,0.0,0.0,36,0.00,,,-99.99,Weather View 32 v60,2013-03-11 02:50:00,
2013-03-10 20:00:00,59.5,33.2,30.26,WNW,302,0.0,0.0,37,0.00,,,-99.99,Weather View 32 v60,2013-03-11 03:00:00,
2013-03-10 20:10:00,58.8,33.2,30.29,SW,224,0.0,0.0,38,0.00,,,-99.99,Weather View 32 v60,2013-03-11 03:10:00,
2013-03-10 20:18:00,58.8,33.2,30.29,SW,224,0.0,0.0,38,0.00,,,-99.99,Weather View 32 v60,2013-03-11 03:18:00,
2013-03-10 20:30:00,58.1,31.9,30.29,West,269,0.0,0.0,37,0.00,,,-99.99,Weather View 32 v60,2013-03-11 03:30:00,
2013-03-10 20:40:00,57.7,31.6,30.29,WNW,282,0.0,0.0,37,0.00,,,-99.99,Weather View 32 v60,2013-03-11 03:40:00,
2013-03-10 20:50:00,57.0,30.9,30.29,WNW,282,0.0,0.0,37,0.00,,,-99.99,Weather View 32 v60,2013-03-11 03:50:00,
2013-03-10 21:00:00,56.5,31.8,30.29,South,191,0.0,0.0,39,0.00,,,-99.99,Weather View 32 v60,2013-03-11 04:00:00,
2013-03-10 21:10:00,55.9,33.1,30.29,South,191,0.0,0.0,42,0.00,,,-99.99,Weather View 32 v60,2013-03-11 04:10:00,
2013-03-10 21:18:00,55.9,33.1,30.29,South,191,0.0,0.0,42,0.00,,,-99.99,Weather View 32 v60,2013-03-11 04:18:00,
2013-03-10 21:20:00,55.2,33.6,30.29,South,191,0.0,0.0,44,0.00,,,-99.99,Weather View 32 v60,2013-03-11 04:20:00,
2013-03-10 21:30:00,54.5,34.1,30.29,SE,141,0.0,0.0,46,0.00,,,-99.99,Weather View 32 v60,2013-03-11 04:30:00,
2013-03-10 21:40:00,54.1,34.8,30.29,SE,131,0.0,0.0,48,0.00,,,-99.99,Weather View 32 v60,2013-03-11 04:40:00,
2013-03-10 21:50:00,53.6,34.3,30.29,SE,131,0.0,0.0,48,0.00,,,-99.99,Weather View 32 v60,2013-03-11 04:50:00,
2013-03-10 22:00:00,53.1,34.4,30.29,SE,131,0.0,0.0,49,0.00,,,-99.99,Weather View 32 v60,2013-03-11 05:00:00,
2013-03-10 22:10:00,52.5,34.4,30.29,SE,131,0.0,0.0,50,0.00,,,-99.99,Weather View 32 v60,2013-03-11 05:10:00,
2013-03-10 22:19:00,52.5,34.4,30.29,SE,131,0.0,0.0,50,0.00,,,-99.99,Weather View 32 v60,2013-03-11 05:19:00,
2013-03-10 22:30:00,51.6,35.0,30.29,SE,131,0.0,0.0,53,0.00,,,-99.99,Weather View 32 v60,2013-03-11 05:30:00,
2013-03-10 22:39:00,51.3,35.6,30.29,SE,131,0.0,0.0,55,0.00,,,-99.99,Weather View 32 v60,2013-03-11 05:39:00,
2013-03-10 22:50:00,50.5,34.9,30.29,SE,131,0.0,0.0,55,0.00,,,-99.99,Weather View 32 v60,2013-03-11 05:50:00,
2013-03-10 23:00:00,50.0,35.3,30.29,SE,131,0.0,0.0,57,0.00,,,-99.99,Weather View 32 v60,2013-03-11 06:00:00,
2013-03-10 23:10:00,49.6,35.4,30.29,SE,131,0.0,0.0,58,0.00,,,-99.99,Weather View 32 v60,2013-03-11 06:10:00,
2013-03-10 23:19:00,49.6,35.4,30.29,SE,131,0.0,0.0,58,0.00,,,-99.99,Weather View 32 v60,2013-03-11 06:19:00,
2013-03-10 23:30:00,48.7,35.9,30.29,SE,131,0.0,0.0,61,0.00,,,-99.99,Weather View 32 v60,2013-03-11 06:30:00,
2013-03-10 23:40:00,48.0,35.6,30.29,SE,131,0.0,0.0,62,0.00,,,-99.99,Weather View 32 v60,2013-03-11 06:40:00,
2013-03-10 23:50:00,47.8,36.2,30.29,SE,131,0.0,0.0,64,0.00,,,-99.99,Weather View 32 v60,2013-03-11 06:50:00,